sensor_id;sensor_type;location;lat;lon;timestamp;pressure;altitude;pressure_sealevel;temperature;humidity
31096;BME280;17749;51.962;8.560;2023-01-05T06:02:18;99965.88;;;8.95;100.00
31096;BME280;17749;51.962;8.560;2023-01-05T06:04:45;99971.19;;;8.95;100.00
31096;BME280;17749;51.962;8.560;2023-01-05T06:07:12;99981.69;;;8.98;100.00
31096;BME280;17749;51.962;8.560;2023-01-05T06:09:38;99988.75;;;8.99;100.00
31096;BME280;17749;51.962;8.560;2023-01-05T06:12:06;99995.91;;;8.97;100.00
31096;BME280;17749;51.962;8.560;2023-01-05T06:14:32;99995.78;;;9.00;100.00
31096;BME280;17749;51.962;8.560;2023-01-05T06:16:59;100006.41;;;9.00;100.00
31096;BME280;17749;51.962;8.560;2023-01-05T06:19:26;100003.75;;;9.00;100.00
31096;BME280;17749;51.962;8.560;2023-01-05T06:21:53;100011.78;;;8.98;100.00
31096;BME280;17749;51.962;8.560;2023-01-05T06:24:20;100016.41;;;8.93;100.00
31096;BME280;17749;51.962;8.560;2023-01-05T06:26:47;100023.44;;;8.94;100.00
31096;BME280;17749;51.962;8.560;2023-01-05T06:29:14;100020.72;;;8.96;100.00
31096;BME280;17749;51.962;8.560;2023-01-05T06:31:41;100022.56;;;8.94;100.00
31096;BME280;17749;51.962;8.560;2023-01-05T06:34:08;100024.44;;;8.90;100.00
31096;BME280;17749;51.962;8.560;2023-01-05T06:36:34;100022.72;;;8.89;100.00
31096;BME280;17749;51.962;8.560;2023-01-05T06:39:02;100030.72;;;8.88;100.00
31096;BME280;17749;51.962;8.560;2023-01-05T06:41:29;100036.88;;;8.90;100.00
31096;BME280;17749;51.962;8.560;2023-01-05T06:43:56;100047.50;;;8.90;100.00
31096;BME280;17749;51.962;8.560;2023-01-05T06:46:23;100041.44;;;8.86;100.00
31096;BME280;17749;51.962;8.560;2023-01-05T06:48:50;100049.31;;;8.88;100.00
31096;BME280;17749;51.962;8.560;2023-01-05T06:51:17;100044.84;;;8.90;100.00
31096;BME280;17749;51.962;8.560;2023-01-05T06:53:44;100048.31;;;8.92;100.00
31096;BME280;17749;51.962;8.560;2023-01-05T06:56:11;100052.88;;;8.88;100.00
31096;BME280;17749;51.962;8.560;2023-01-05T06:58:38;100054.56;;;8.91;100.00
31096;BME280;17749;51.962;8.560;2023-01-05T07:01:05;100056.28;;;8.92;100.00
31096;BME280;17749;51.962;8.560;2023-01-05T07:03:32;100054.56;;;8.91;100.00
31096;BME280;17749;51.962;8.560;2023-01-05T07:05:59;100067.88;;;8.89;100.00
31096;BME280;17749;51.962;8.560;2023-01-05T07:08:26;100077.75;;;8.86;100.00
31096;BME280;17749;51.962;8.560;2023-01-05T07:10:53;100077.69;;;8.87;100.00
31096;BME280;17749;51.962;8.560;2023-01-05T07:13:19;100088.25;;;8.89;100.00
31096;BME280;17749;51.962;8.560;2023-01-05T07:15:47;100088.25;;;8.89;100.00
31096;BME280;17749;51.962;8.560;2023-01-05T07:18:14;100087.53;;;8.84;100.00
31096;BME280;17749;51.962;8.560;2023-01-05T07:20:41;100081.31;;;8.85;100.00
31096;BME280;17749;51.962;8.560;2023-01-05T07:23:08;100104.44;;;8.81;100.00
31096;BME280;17749;51.962;8.560;2023-01-05T07:25:34;100102.53;;;8.85;100.00
31096;BME280;17749;51.962;8.560;2023-01-05T07:28:01;100109.63;;;8.86;100.00
31096;BME280;17749;51.962;8.560;2023-01-05T07:30:28;100104.31;;;8.86;100.00
31096;BME280;17749;51.962;8.560;2023-01-05T07:32:59;100103.50;;;8.82;100.00
31096;BME280;17749;51.962;8.560;2023-01-05T07:35:27;100109.69;;;8.83;100.00
31096;BME280;17749;51.962;8.560;2023-01-05T07:37:57;100122.00;;;8.85;100.00
31096;BME280;17749;51.962;8.560;2023-01-05T07:40:24;100118.47;;;8.85;100.00
31096;BME280;17749;51.962;8.560;2023-01-05T07:42:51;100132.78;;;8.81;100.00
31096;BME280;17749;51.962;8.560;2023-01-05T07:45:19;100134.63;;;8.78;100.00
31096;BME280;17749;51.962;8.560;2023-01-05T07:47:46;100127.47;;;8.81;100.00
31096;BME280;17749;51.962;8.560;2023-01-05T07:50:13;100136.34;;;8.80;100.00
31096;BME280;17749;51.962;8.560;2023-01-05T07:52:40;100141.75;;;8.76;100.00
31096;BME280;17749;51.962;8.560;2023-01-05T07:55:07;100143.47;;;8.77;100.00
31096;BME280;17749;51.962;8.560;2023-01-05T07:57:34;100139.81;;;8.82;100.00
31096;BME280;17749;51.962;8.560;2023-01-05T08:00:02;100143.19;;;8.87;100.00
31096;BME280;17749;51.962;8.560;2023-01-05T08:02:37;100156.47;;;8.87;100.00
31096;BME280;17749;51.962;8.560;2023-01-05T08:05:04;100152.00;;;8.89;100.00
31096;BME280;17749;51.962;8.560;2023-01-05T08:07:31;100157.31;;;8.89;100.00
31096;BME280;17749;51.962;8.560;2023-01-05T08:09:58;100158.22;;;8.88;100.00
31096;BME280;17749;51.962;8.560;2023-01-05T08:12:43;100154.81;;;8.83;100.00
31096;BME280;17749;51.962;8.560;2023-01-05T08:15:28;100156.38;;;8.90;100.00
31096;BME280;17749;51.962;8.560;2023-01-05T08:17:55;100166.09;;;8.91;100.00
31096;BME280;17749;51.962;8.560;2023-01-05T08:20:22;100166.09;;;8.91;100.00
31096;BME280;17749;51.962;8.560;2023-01-05T08:22:50;100171.41;;;8.91;100.00
31096;BME280;17749;51.962;8.560;2023-01-05T08:25:17;100177.69;;;8.88;100.00
31096;BME280;17749;51.962;8.560;2023-01-05T08:27:46;100176.63;;;8.94;100.00
31096;BME280;17749;51.962;8.560;2023-01-05T08:30:13;100179.16;;;8.97;100.00
31096;BME280;17749;51.962;8.560;2023-01-05T08:32:41;100186.28;;;8.96;100.00
31096;BME280;17749;51.962;8.560;2023-01-05T08:35:08;100187.25;;;8.94;100.00
31096;BME280;17749;51.962;8.560;2023-01-05T08:37:35;100186.28;;;8.96;100.00
31096;BME280;17749;51.962;8.560;2023-01-05T08:40:02;100192.34;;;9.00;100.00
31096;BME280;17749;51.962;8.560;2023-01-05T08:42:29;100188.97;;;8.95;100.00
31096;BME280;17749;51.962;8.560;2023-01-05T08:44:57;100194.97;;;9.02;100.00
31096;BME280;17749;51.962;8.560;2023-01-05T08:47:24;100201.16;;;9.02;100.00
31096;BME280;17749;51.962;8.560;2023-01-05T08:49:54;100211.66;;;9.05;100.00
31096;BME280;17749;51.962;8.560;2023-01-05T08:52:21;100205.34;;;9.09;100.00
31096;BME280;17749;51.962;8.560;2023-01-05T08:54:49;100208.00;;;9.09;100.00
31096;BME280;17749;51.962;8.560;2023-01-05T08:57:16;100207.09;;;9.09;100.00
31096;BME280;17749;51.962;8.560;2023-01-05T08:59:43;100210.72;;;9.06;100.00
31096;BME280;17749;51.962;8.560;2023-01-05T09:02:12;100210.59;;;9.11;100.00
31096;BME280;17749;51.962;8.560;2023-01-05T09:04:41;100209.72;;;9.10;100.00
31096;BME280;17749;51.962;8.560;2023-01-05T09:07:08;100219.59;;;9.07;100.00
31096;BME280;17749;51.962;8.560;2023-01-05T09:09:35;100226.59;;;9.09;100.00
31096;BME280;17749;51.962;8.560;2023-01-05T09:12:02;100218.66;;;9.08;100.00
31096;BME280;17749;51.962;8.560;2023-01-05T09:14:29;100229.25;;;9.09;100.00
31096;BME280;17749;51.962;8.560;2023-01-05T09:16:56;100227.47;;;9.10;100.00
31096;BME280;17749;51.962;8.560;2023-01-05T09:19:33;100235.47;;;9.08;100.00
31096;BME280;17749;51.962;8.560;2023-01-05T09:22:00;100232.72;;;9.11;100.00
31096;BME280;17749;51.962;8.560;2023-01-05T09:24:27;100246.81;;;9.13;100.00
31096;BME280;17749;51.962;8.560;2023-01-05T09:26:54;100241.59;;;9.10;100.00
31096;BME280;17749;51.962;8.560;2023-01-05T09:29:21;100245.19;;;9.09;100.00
31096;BME280;17749;51.962;8.560;2023-01-05T09:31:48;100237.25;;;9.08;100.00
31096;BME280;17749;51.962;8.560;2023-01-05T09:34:16;100246.16;;;9.07;100.00
31096;BME280;17749;51.962;8.560;2023-01-05T09:36:44;100250.50;;;9.09;100.00
31096;BME280;17749;51.962;8.560;2023-01-05T09:39:11;100255.63;;;9.15;100.00
31096;BME280;17749;51.962;8.560;2023-01-05T09:42:00;100262.66;;;9.16;100.00
31096;BME280;17749;51.962;8.560;2023-01-05T09:44:58;100269.72;;;9.17;100.00
31096;BME280;17749;51.962;8.560;2023-01-05T09:47:35;100273.28;;;9.16;100.00
31096;BME280;17749;51.962;8.560;2023-01-05T09:50:10;100268.88;;;9.17;100.00
31096;BME280;17749;51.962;8.560;2023-01-05T09:52:42;100273.28;;;9.16;100.00
31096;BME280;17749;51.962;8.560;2023-01-05T09:55:17;100279.50;;;9.17;100.00
31096;BME280;17749;51.962;8.560;2023-01-05T09:58:06;100286.53;;;9.18;100.00
31096;BME280;17749;51.962;8.560;2023-01-05T10:00:40;100282.09;;;9.18;100.00
31096;BME280;17749;51.962;8.560;2023-01-05T10:03:13;100288.16;;;9.22;100.00
31096;BME280;17749;51.962;8.560;2023-01-05T10:06:05;100296.19;;;9.20;100.00
31096;BME280;17749;51.962;8.560;2023-01-05T10:08:38;100295.34;;;9.20;100.00
31096;BME280;17749;51.962;8.560;2023-01-05T10:11:13;100298.72;;;9.25;100.00
31096;BME280;17749;51.962;8.560;2023-01-05T10:14:08;100298.78;;;9.22;100.00
31096;BME280;17749;51.962;8.560;2023-01-05T10:16:39;100296.25;;;9.19;100.00
31096;BME280;17749;51.962;8.560;2023-01-05T10:19:13;100297.06;;;9.21;100.00
31096;BME280;17749;51.962;8.560;2023-01-05T10:27:14;100308.47;;;9.25;100.00
31096;BME280;17749;51.962;8.560;2023-01-05T10:30:28;100309.25;;;9.28;100.00
31096;BME280;17749;51.962;8.560;2023-01-05T10:32:59;100304.81;;;9.29;100.00
31096;BME280;17749;51.962;8.560;2023-01-05T10:39:04;100308.28;;;9.31;100.00
31096;BME280;17749;51.962;8.560;2023-01-05T10:47:26;100317.16;;;9.30;100.00
31096;BME280;17749;51.962;8.560;2023-01-05T10:49:55;100313.63;;;9.29;100.00
31096;BME280;17749;51.962;8.560;2023-01-05T10:52:24;100316.53;;;9.21;100.00
31096;BME280;17749;51.962;8.560;2023-01-05T10:54:58;100315.56;;;9.24;100.00
31096;BME280;17749;51.962;8.560;2023-01-05T11:00:04;100322.56;;;9.27;100.00
31096;BME280;17749;51.962;8.560;2023-01-05T11:02:34;100329.59;;;9.29;100.00
31096;BME280;17749;51.962;8.560;2023-01-05T11:07:57;100312.88;;;9.26;100.00
31096;BME280;17749;51.962;8.560;2023-01-05T11:10:30;100332.56;;;9.18;100.00
31096;BME280;17749;51.962;8.560;2023-01-05T11:13:31;100337.88;;;9.18;100.00
31096;BME280;17749;51.962;8.560;2023-01-05T11:16:06;100335.19;;;9.20;100.00
31096;BME280;17749;51.962;8.560;2023-01-05T11:21:20;100344.03;;;9.20;100.00
31096;BME280;17749;51.962;8.560;2023-01-05T11:23:56;100344.88;;;9.23;100.00
31096;BME280;17749;51.962;8.560;2023-01-05T11:29:04;100335.22;;;9.18;100.00
31096;BME280;17749;51.962;8.560;2023-01-05T11:31:46;100339.69;;;9.18;100.00
31096;BME280;17749;51.962;8.560;2023-01-05T11:39:48;100341.41;;;9.19;100.00
31096;BME280;17749;51.962;8.560;2023-01-05T11:42:29;100346.78;;;9.17;100.00
31096;BME280;17749;51.962;8.560;2023-01-05T11:45:06;100349.34;;;9.20;100.00
31096;BME280;17749;51.962;8.560;2023-01-05T11:47:45;100355.53;;;9.21;100.00
31096;BME280;17749;51.962;8.560;2023-01-05T11:52:45;100352.09;;;9.17;100.00
31096;BME280;17749;51.962;8.560;2023-01-05T11:57:47;100355.56;;;9.19;100.00
31096;BME280;17749;51.962;8.560;2023-01-05T12:00:32;100366.25;;;9.18;100.00
31096;BME280;17749;51.962;8.560;2023-01-05T12:03:32;100361.81;;;9.18;100.00
31096;BME280;17749;51.962;8.560;2023-01-05T12:20:53;100363.06;;;9.35;100.00
31096;BME280;17749;51.962;8.560;2023-01-05T12:23:43;100355.91;;;9.37;100.00
31096;BME280;17749;51.962;8.560;2023-01-05T12:26:22;100363.97;;;9.35;100.00
31096;BME280;17749;51.962;8.560;2023-01-05T12:32:16;100366.34;;;9.43;100.00
31096;BME280;17749;51.962;8.560;2023-01-05T12:43:42;100376.09;;;9.44;100.00
31096;BME280;17749;51.962;8.560;2023-01-05T12:46:28;100372.50;;;9.45;100.00
31096;BME280;17749;51.962;8.560;2023-01-05T12:49:05;100363.78;;;9.40;100.00
31096;BME280;17749;51.962;8.560;2023-01-05T12:51:50;100373.53;;;9.41;100.00
31096;BME280;17749;51.962;8.560;2023-01-05T12:57:07;100378.84;;;9.41;100.00
31096;BME280;17749;51.962;8.560;2023-01-05T12:59:51;100372.72;;;9.37;100.00
31096;BME280;17749;51.962;8.560;2023-01-05T13:05:08;100382.69;;;9.31;100.00
31096;BME280;17749;51.962;8.560;2023-01-05T13:08:03;100396.84;;;9.31;100.00
31096;BME280;17749;51.962;8.560;2023-01-05T13:10:55;100392.41;;;9.32;100.00
31096;BME280;17749;51.962;8.560;2023-01-05T13:13:34;100393.22;;;9.34;100.00
31096;BME280;17749;51.962;8.560;2023-01-05T13:16:14;100388.84;;;9.33;100.00
31096;BME280;17749;51.962;8.560;2023-01-05T13:18:51;100388.78;;;9.34;100.00
31096;BME280;17749;51.962;8.560;2023-01-05T13:21:20;100398.53;;;9.34;100.00
31096;BME280;17749;51.962;8.560;2023-01-05T13:23:57;100399.41;;;9.34;100.00
31096;BME280;17749;51.962;8.560;2023-01-05T13:26:26;100402.03;;;9.36;100.00
31096;BME280;17749;51.962;8.560;2023-01-05T13:29:00;100405.34;;;9.42;100.00
31096;BME280;17749;51.962;8.560;2023-01-05T13:34:22;100406.31;;;9.40;100.00
31096;BME280;17749;51.962;8.560;2023-01-05T13:39:37;100413.19;;;9.47;100.00
31096;BME280;17749;51.962;8.560;2023-01-05T13:45:42;100398.84;;;9.53;100.00
31096;BME280;17749;51.962;8.560;2023-01-05T13:48:19;100406.88;;;9.51;100.00
31096;BME280;17749;51.962;8.560;2023-01-05T13:51:28;100421.19;;;9.47;100.00
31096;BME280;17749;51.962;8.560;2023-01-05T13:54:13;100423.72;;;9.50;100.00
31096;BME280;17749;51.962;8.560;2023-01-05T13:56:42;100429.88;;;9.52;100.00
31096;BME280;17749;51.962;8.560;2023-01-05T13:59:23;100435.31;;;9.49;100.00
31096;BME280;17749;51.962;8.560;2023-01-05T14:02:02;100436.16;;;9.50;100.00
31096;BME280;17749;51.962;8.560;2023-01-05T14:04:32;100444.19;;;9.48;100.00
31096;BME280;17749;51.962;8.560;2023-01-05T14:07:03;100447.72;;;9.49;100.00
31096;BME280;17749;51.962;8.560;2023-01-05T14:09:38;100444.19;;;9.48;100.00
31096;BME280;17749;51.962;8.560;2023-01-05T14:26:06;100449.88;;;9.36;100.00
31096;BME280;17749;51.962;8.560;2023-01-05T14:28:40;100457.03;;;9.34;100.00
31096;BME280;17749;51.962;8.560;2023-01-05T14:38:57;100481.94;;;9.30;100.00
31096;BME280;17749;51.962;8.560;2023-01-05T14:41:27;100468.63;;;9.30;100.00
31096;BME280;17749;51.962;8.560;2023-01-05T14:43:57;100478.47;;;9.28;100.00
31096;BME280;17749;51.962;8.560;2023-01-05T14:46:27;100475.84;;;9.26;100.00
31096;BME280;17749;51.962;8.560;2023-01-05T14:49:02;100480.38;;;9.23;100.00
31096;BME280;17749;51.962;8.560;2023-01-05T14:51:31;100479.56;;;9.20;100.00
31096;BME280;17749;51.962;8.560;2023-01-05T14:54:03;100477.88;;;9.16;100.00
31096;BME280;17749;51.962;8.560;2023-01-05T14:56:36;100491.16;;;9.16;100.00
31096;BME280;17749;51.962;8.560;2023-01-05T14:59:22;100488.56;;;9.15;100.00
31096;BME280;17749;51.962;8.560;2023-01-05T15:01:52;100489.44;;;9.15;100.00
31096;BME280;17749;51.962;8.560;2023-01-05T15:04:41;100497.44;;;9.14;100.00
31096;BME280;17749;51.962;8.560;2023-01-05T15:23:49;100503.66;;;9.14;100.00
31096;BME280;17749;51.962;8.560;2023-01-05T15:26:41;100499.19;;;9.15;100.00
31096;BME280;17749;51.962;8.560;2023-01-05T15:32:08;100490.41;;;9.11;100.00
31096;BME280;17749;51.962;8.560;2023-01-05T15:37:39;100491.47;;;9.06;100.00
31096;BME280;17749;51.962;8.560;2023-01-05T15:40:25;100492.44;;;9.03;100.00
31096;BME280;17749;51.962;8.560;2023-01-05T15:42:58;100487.94;;;9.05;100.00
31096;BME280;17749;51.962;8.560;2023-01-05T15:47:57;100488.13;;;8.99;100.00
31096;BME280;17749;51.962;8.560;2023-01-05T15:50:36;100485.41;;;9.00;100.00
31096;BME280;17749;51.962;8.560;2023-01-05T15:53:04;100487.16;;;9.02;100.00
31096;BME280;17749;51.962;8.560;2023-01-05T15:55:31;100488.91;;;9.03;100.00
31096;BME280;17749;51.962;8.560;2023-01-05T15:58:00;100488.13;;;8.99;100.00
31096;BME280;17749;51.962;8.560;2023-01-05T16:00:30;100496.03;;;9.00;100.00
31096;BME280;17749;51.962;8.560;2023-01-05T16:02:58;100494.31;;;8.99;100.00
31096;BME280;17749;51.962;8.560;2023-01-05T16:05:27;100506.72;;;8.99;100.00
31096;BME280;17749;51.962;8.560;2023-01-05T16:10:55;100501.53;;;8.94;100.00
31096;BME280;17749;51.962;8.560;2023-01-05T16:13:42;100510.41;;;8.93;100.00
31096;BME280;17749;51.962;8.560;2023-01-05T16:16:33;100508.66;;;8.92;100.00
31096;BME280;17749;51.962;8.560;2023-01-05T16:22:07;100499.00;;;8.90;100.00
31096;BME280;17749;51.962;8.560;2023-01-05T16:27:19;100503.59;;;8.83;100.00
31096;BME280;17749;51.962;8.560;2023-01-05T16:29:47;100500.06;;;8.83;100.00
31096;BME280;17749;51.962;8.560;2023-01-05T16:46:24;100506.47;;;8.75;100.00
31096;BME280;17749;51.962;8.560;2023-01-05T16:48:57;100505.66;;;8.72;100.00
31096;BME280;17749;51.962;8.560;2023-01-05T16:54:10;100526.13;;;8.68;100.00
31096;BME280;17749;51.962;8.560;2023-01-05T16:57:03;100523.47;;;8.67;100.00
31096;BME280;17749;51.962;8.560;2023-01-05T17:02:37;100521.88;;;8.61;100.00
31096;BME280;17749;51.962;8.560;2023-01-05T17:05:05;100524.50;;;8.61;100.00
31096;BME280;17749;51.962;8.560;2023-01-05T17:07:36;100522.78;;;8.60;100.00
31096;BME280;17749;51.962;8.560;2023-01-05T17:10:06;100525.47;;;8.59;100.00
31096;BME280;17749;51.962;8.560;2023-01-05T17:12:33;100526.41;;;8.56;100.00
31096;BME280;17749;51.962;8.560;2023-01-05T17:15:01;100526.41;;;8.56;100.00
31096;BME280;17749;51.962;8.560;2023-01-05T17:17:30;100540.59;;;8.55;100.00
31096;BME280;17749;51.962;8.560;2023-01-05T17:19:57;100540.59;;;8.55;100.00
31096;BME280;17749;51.962;8.560;2023-01-05T17:22:24;100534.47;;;8.53;100.00
31096;BME280;17749;51.962;8.560;2023-01-05T17:24:51;100535.38;;;8.52;100.00
31096;BME280;17749;51.962;8.560;2023-01-05T17:27:18;100537.19;;;8.50;100.00
31096;BME280;17749;51.962;8.560;2023-01-05T17:29:45;100531.09;;;8.46;100.00
31096;BME280;17749;51.962;8.560;2023-01-05T17:32:12;100532.06;;;8.44;100.00
31096;BME280;17749;51.962;8.560;2023-01-05T17:34:39;100530.38;;;8.40;100.00
31096;BME280;17749;51.962;8.560;2023-01-05T17:37:13;100525.09;;;8.37;100.00
31096;BME280;17749;51.962;8.560;2023-01-05T17:39:40;100522.56;;;8.32;100.00
31096;BME280;17749;51.962;8.560;2023-01-05T17:42:07;100523.59;;;8.26;100.00
31096;BME280;17749;51.962;8.560;2023-01-05T17:44:53;100526.34;;;8.22;100.00
31096;BME280;17749;51.962;8.560;2023-01-05T17:47:19;100517.59;;;8.17;100.00
31096;BME280;17749;51.962;8.560;2023-01-05T17:49:46;100515.91;;;8.14;100.00
31096;BME280;17749;51.962;8.560;2023-01-05T17:52:13;100515.09;;;8.10;100.00
31096;BME280;17749;51.962;8.560;2023-01-05T17:54:40;100518.72;;;8.08;100.00
31096;BME280;17749;51.962;8.560;2023-01-05T17:57:10;100513.56;;;8.02;100.00
31096;BME280;17749;51.962;8.560;2023-01-05T17:59:37;100517.09;;;8.01;100.00
31096;BME280;17749;51.962;8.560;2023-01-05T18:02:05;100515.38;;;7.98;100.00
31096;BME280;17749;51.962;8.560;2023-01-05T18:04:32;100511.88;;;7.98;100.00
31096;BME280;17749;51.962;8.560;2023-01-05T18:06:59;100509.22;;;7.98;100.00
31096;BME280;17749;51.962;8.560;2023-01-05T18:09:26;100517.16;;;7.98;100.00
31096;BME280;17749;51.962;8.560;2023-01-05T18:11:53;100513.66;;;7.97;100.00
31096;BME280;17749;51.962;8.560;2023-01-05T18:14:20;100510.13;;;7.97;100.00
31096;BME280;17749;51.962;8.560;2023-01-05T18:16:47;100512.78;;;7.97;100.00
31096;BME280;17749;51.962;8.560;2023-01-05T18:19:14;100508.38;;;7.96;100.00
31096;BME280;17749;51.962;8.560;2023-01-05T18:21:41;100506.63;;;7.95;100.00
31096;BME280;17749;51.962;8.560;2023-01-05T18:24:09;100508.38;;;7.96;100.00
31096;BME280;17749;51.962;8.560;2023-01-05T18:26:36;100508.38;;;7.96;100.00
31096;BME280;17749;51.962;8.560;2023-01-05T18:29:03;100509.25;;;7.96;100.00
31096;BME280;17749;51.962;8.560;2023-01-05T18:31:31;100510.13;;;7.97;100.00
31096;BME280;17749;51.962;8.560;2023-01-05T18:34:02;100506.56;;;7.98;100.00
31096;BME280;17749;51.962;8.560;2023-01-05T18:36:29;100501.25;;;7.98;100.00
31096;BME280;17749;51.962;8.560;2023-01-05T18:38:56;100508.28;;;7.99;100.00
31096;BME280;17749;51.962;8.560;2023-01-05T18:41:24;100513.59;;;7.99;100.00
31096;BME280;17749;51.962;8.560;2023-01-05T18:43:50;100507.41;;;8.00;100.00
31096;BME280;17749;51.962;8.560;2023-01-05T18:46:17;100517.16;;;7.98;100.00
31096;BME280;17749;51.962;8.560;2023-01-05T18:48:51;100513.59;;;7.99;100.00
31096;BME280;17749;51.962;8.560;2023-01-05T18:51:18;100505.69;;;7.97;100.00
31096;BME280;17749;51.962;8.560;2023-01-05T18:53:45;100510.06;;;8.00;100.00
31096;BME280;17749;51.962;8.560;2023-01-05T18:56:13;100507.41;;;8.00;100.00
31096;BME280;17749;51.962;8.560;2023-01-05T18:58:40;100507.34;;;8.01;100.00
31096;BME280;17749;51.962;8.560;2023-01-05T19:03:36;100509.25;;;7.96;100.00
31096;BME280;17749;51.962;8.560;2023-01-05T19:06:12;100504.84;;;7.97;100.00
31096;BME280;17749;51.962;8.560;2023-01-05T19:08:42;100502.00;;;8.04;100.00
31096;BME280;17749;51.962;8.560;2023-01-05T19:11:21;100504.59;;;8.06;100.00
31096;BME280;17749;51.962;8.560;2023-01-05T19:13:48;100507.41;;;8.00;100.00
31096;BME280;17749;51.962;8.560;2023-01-05T19:16:17;100510.84;;;8.03;100.00
31096;BME280;17749;51.962;8.560;2023-01-05T19:18:49;100510.75;;;8.08;100.00
31096;BME280;17749;51.962;8.560;2023-01-05T19:21:17;100506.38;;;8.07;100.00
31096;BME280;17749;51.962;8.560;2023-01-05T19:23:44;100509.91;;;8.06;100.00
31096;BME280;17749;51.962;8.560;2023-01-05T19:26:11;100502.78;;;8.08;100.00
31096;BME280;17749;51.962;8.560;2023-01-05T19:28:38;100496.56;;;8.09;100.00
31096;BME280;17749;51.962;8.560;2023-01-05T19:31:08;100499.16;;;8.12;100.00
31096;BME280;17749;51.962;8.560;2023-01-05T19:33:36;100488.53;;;8.12;100.00
31096;BME280;17749;51.962;8.560;2023-01-05T19:36:11;100499.16;;;8.12;100.00
31096;BME280;17749;51.962;8.560;2023-01-05T19:38:39;100498.16;;;8.18;100.00
31096;BME280;17749;51.962;8.560;2023-01-05T19:41:14;100493.72;;;8.18;100.00
31096;BME280;17749;51.962;8.560;2023-01-05T19:43:41;100495.53;;;8.16;100.00
31096;BME280;17749;51.962;8.560;2023-01-05T19:46:11;100491.06;;;8.17;100.00
31096;BME280;17749;51.962;8.560;2023-01-05T19:48:39;100483.19;;;8.15;100.00
31096;BME280;17749;51.962;8.560;2023-01-05T19:51:11;100487.56;;;8.16;100.00
31096;BME280;17749;51.962;8.560;2023-01-05T19:53:39;100484.91;;;8.16;100.00
31096;BME280;17749;51.962;8.560;2023-01-05T19:56:14;100483.22;;;8.12;100.00
31096;BME280;17749;51.962;8.560;2023-01-05T19:58:42;100487.53;;;8.18;100.00
31096;BME280;17749;51.962;8.560;2023-01-05T20:01:14;100491.91;;;8.20;100.00
31096;BME280;17749;51.962;8.560;2023-01-05T20:03:42;100480.38;;;8.20;100.00
31096;BME280;17749;51.962;8.560;2023-01-05T20:06:14;100477.72;;;8.21;100.00
31096;BME280;17749;51.962;8.560;2023-01-05T20:08:41;100473.34;;;8.19;100.00
31096;BME280;17749;51.962;8.560;2023-01-05T20:11:11;100474.28;;;8.16;100.00
31096;BME280;17749;51.962;8.560;2023-01-05T20:13:39;100470.72;;;8.17;100.00
31096;BME280;17749;51.962;8.560;2023-01-05T20:16:08;100474.28;;;8.16;100.00
31096;BME280;17749;51.962;8.560;2023-01-05T20:18:37;100474.22;;;8.19;100.00
31096;BME280;17749;51.962;8.560;2023-01-05T20:21:06;100472.50;;;8.18;100.00
31096;BME280;17749;51.962;8.560;2023-01-05T20:23:35;100467.19;;;8.18;100.00
31096;BME280;17749;51.962;8.560;2023-01-05T20:26:11;100467.25;;;8.15;100.00
31096;BME280;17749;51.962;8.560;2023-01-05T20:28:39;100469.84;;;8.18;100.00
31096;BME280;17749;51.962;8.560;2023-01-05T20:31:25;100469.22;;;8.07;100.00
31096;BME280;17749;51.962;8.560;2023-01-05T20:33:53;100467.31;;;8.12;100.00
31096;BME280;17749;51.962;8.560;2023-01-05T20:36:22;100462.25;;;8.03;100.00
31096;BME280;17749;51.962;8.560;2023-01-05T20:38:50;100460.28;;;8.11;100.00
31096;BME280;17749;51.962;8.560;2023-01-05T20:41:29;100466.41;;;8.13;100.00
31096;BME280;17749;51.962;8.560;2023-01-05T20:43:56;100460.38;;;8.06;100.00
31096;BME280;17749;51.962;8.560;2023-01-05T20:46:27;100462.06;;;8.10;100.00
31096;BME280;17749;51.962;8.560;2023-01-05T20:48:54;100458.63;;;8.07;100.00
31096;BME280;17749;51.962;8.560;2023-01-05T20:51:22;100458.53;;;8.10;100.00
31096;BME280;17749;51.962;8.560;2023-01-05T20:53:50;100472.69;;;8.09;100.00
31096;BME280;17749;51.962;8.560;2023-01-05T20:56:24;100460.28;;;8.09;100.00
31096;BME280;17749;51.962;8.560;2023-01-05T20:58:52;100460.34;;;8.08;100.00
31096;BME280;17749;51.962;8.560;2023-01-05T21:01:21;100454.97;;;8.11;100.00
31096;BME280;17749;51.962;8.560;2023-01-05T21:03:48;100455.75;;;8.15;100.00
31096;BME280;17749;51.962;8.560;2023-01-05T21:06:16;100455.72;;;8.16;100.00
31096;BME280;17749;51.962;8.560;2023-01-05T21:08:46;100464.53;;;8.18;100.00
31096;BME280;17749;51.962;8.560;2023-01-05T21:11:18;100457.47;;;8.17;100.00
31096;BME280;17749;51.962;8.560;2023-01-05T21:13:49;100460.09;;;8.17;100.00
31096;BME280;17749;51.962;8.560;2023-01-05T21:16:23;100453.00;;;8.19;100.00
31096;BME280;17749;51.962;8.560;2023-01-05T21:18:51;100451.94;;;8.26;100.00
31096;BME280;17749;51.962;8.560;2023-01-05T21:21:20;100452.13;;;8.19;100.00
31096;BME280;17749;51.962;8.560;2023-01-05T21:23:49;100455.81;;;8.13;100.00
31096;BME280;17749;51.962;8.560;2023-01-05T21:26:17;100449.59;;;8.14;100.00
31096;BME280;17749;51.962;8.560;2023-01-05T21:28:45;100453.16;;;8.13;100.00
